Time;durP1;ratioP1;P1;durP2;ratioP2;P2;SDS_P1;SDS_P2;PMS_P1;PMS_P2;Temp;Humidity;BMP_temperature;BMP_pressure;BME280_temperature;BME280_humidity;BME280_pressure;Samples;Min_cycle;Max_cycle;Signal;HPM_P1;HPM_P2
2021/10/21 00:01:55;;;;;;;15.95;12.20;;;13.80;99.90;;;;;;5043749;28;20029;-75
2021/10/21 00:04:20;;;;;;;16.80;12.02;;;13.80;99.90;;;;;;5035870;28;20022;-75
2021/10/21 00:06:46;;;;;;;18.63;12.68;;;13.70;99.90;;;;;;5037936;28;20025;-75
2021/10/21 00:09:12;;;;;;;16.88;12.52;;;13.80;99.90;;;;;;5033069;28;20049;-75
2021/10/21 00:11:39;;;;;;;15.32;12.50;;;13.70;99.90;;;;;;5045339;28;20025;-74
2021/10/21 00:14:04;;;;;;;14.43;11.70;;;13.80;99.90;;;;;;5046475;28;20490;-75
2021/10/21 00:16:31;;;;;;;16.88;12.70;;;13.80;99.90;;;;;;5040884;28;20041;-74
2021/10/21 00:18:56;;;;;;;17.02;12.18;;;13.80;99.90;;;;;;5045885;28;20029;-74
2021/10/21 00:21:22;;;;;;;14.88;11.70;;;13.80;99.90;;;;;;5041367;28;20017;-74
2021/10/21 00:23:48;;;;;;;13.88;11.55;;;13.80;99.90;;;;;;5042850;28;20021;-74
2021/10/21 00:26:13;;;;;;;15.57;12.07;;;13.80;99.90;;;;;;5041744;28;20025;-74
2021/10/21 00:28:39;;;;;;;17.17;12.25;;;13.80;99.90;;;;;;5043364;28;20021;-74
2021/10/21 00:31:05;;;;;;;16.40;12.90;;;13.80;99.90;;;;;;5041924;28;20037;-74
2021/10/21 00:33:31;;;;;;;16.65;12.38;;;13.80;99.90;;;;;;5033902;28;20662;-75
2021/10/21 00:35:57;;;;;;;18.23;12.75;;;13.80;99.90;;;;;;5030661;28;20036;-74
2021/10/21 00:38:23;;;;;;;19.10;13.30;;;13.80;99.90;;;;;;5019742;28;20083;-74
2021/10/21 00:40:49;;;;;;;17.80;14.27;;;13.80;99.90;;;;;;5017031;28;20388;-74
2021/10/21 00:43:15;;;;;;;15.35;12.65;;;13.80;99.90;;;;;;5019563;28;20067;-74
2021/10/21 00:45:40;;;;;;;19.52;13.75;;;13.80;99.90;;;;;;5031610;28;20045;-73
2021/10/21 00:48:06;;;;;;;19.10;13.40;;;13.80;99.90;;;;;;5022044;28;20025;-73
2021/10/21 00:50:32;;;;;;;20.20;14.20;;;13.80;99.90;;;;;;5013644;28;20388;-74
2021/10/21 00:52:59;;;;;;;18.58;13.70;;;13.80;99.90;;;;;;5038482;28;20029;-74
2021/10/21 00:55:26;;;;;;;16.77;13.52;;;13.80;99.90;;;;;;5029056;28;20064;-74
2021/10/21 00:57:51;;;;;;;14.82;11.88;;;13.80;99.90;;;;;;5035613;28;20029;-74
2021/10/21 01:00:17;;;;;;;15.35;11.40;;;13.70;99.90;;;;;;5035565;28;20403;-74
2021/10/21 01:02:43;;;;;;;14.13;11.77;;;13.80;99.90;;;;;;5026921;28;20022;-73
2021/10/21 01:05:09;;;;;;;17.08;12.45;;;13.70;99.90;;;;;;5029055;28;20079;-74
2021/10/21 01:07:35;;;;;;;16.17;12.43;;;13.80;99.90;;;;;;5024202;28;20028;-74
2021/10/21 01:10:04;;;;;;;17.27;12.30;;;13.70;99.90;;;;;;5022111;28;20361;-73
2021/10/21 01:12:29;;;;;;;16.63;12.73;;;13.70;99.90;;;;;;5026552;28;20108;-73
2021/10/21 01:15:14;;;;;;;17.30;12.18;;;13.60;99.90;;;;;;5030554;28;20160;-73
2021/10/21 01:17:39;;;;;;;15.70;11.82;;;13.70;99.90;;;;;;5024207;28;20042;-73
2021/10/21 01:20:05;;;;;;;17.25;12.75;;;13.70;99.90;;;;;;5019925;28;20026;-74
2021/10/21 01:22:31;;;;;;;16.48;11.95;;;13.70;99.90;;;;;;5035114;28;20114;-73
2021/10/21 01:24:56;;;;;;;18.92;13.00;;;13.70;99.90;;;;;;5017634;28;20018;-73
2021/10/21 01:27:22;;;;;;;18.52;13.13;;;13.70;99.90;;;;;;5023256;28;20022;-74
2021/10/21 01:29:47;;;;;;;19.05;14.00;;;13.60;99.90;;;;;;5035003;28;20434;-74
2021/10/21 01:32:25;;;;;;;20.25;13.50;;;13.60;99.90;;;;;;5032680;28;20029;-73
2021/10/21 01:34:51;;;;;;;15.95;12.98;;;13.60;99.90;;;;;;5034935;28;20395;-74
2021/10/21 01:37:17;;;;;;;20.38;12.95;;;13.60;99.90;;;;;;5035021;28;20515;-75
2021/10/21 01:39:42;;;;;;;17.92;11.80;;;13.60;99.90;;;;;;5034821;28;20061;-75
2021/10/21 01:42:08;;;;;;;14.95;11.40;;;13.50;99.90;;;;;;5034813;28;20100;-75
2021/10/21 01:44:33;;;;;;;14.05;11.07;;;13.50;99.90;;;;;;5022085;28;20026;-75
2021/10/21 01:46:59;;;;;;;13.55;10.80;;;13.50;99.90;;;;;;5027512;28;20480;-76
2021/10/21 01:49:24;;;;;;;13.02;9.15;;;13.50;99.90;;;;;;5021350;28;20659;-76
2021/10/21 01:51:50;;;;;;;10.90;9.05;;;13.40;99.90;;;;;;5022482;28;20030;-76
2021/10/21 01:54:17;;;;;;;14.70;8.82;;;13.40;99.90;;;;;;5033668;28;20403;-75
2021/10/21 01:56:42;;;;;;;4.70;2.97;;;13.40;99.90;;;;;;5022480;28;20041;-75
2021/10/21 01:59:08;;;;;;;4.78;4.10;;;13.90;99.90;;;;;;5026831;28;20029;-75
2021/10/21 02:01:33;;;;;;;6.57;4.60;;;13.70;99.90;;;;;;5026414;28;20036;-74
2021/10/21 02:04:00;;;;;;;7.43;4.95;;;13.50;99.90;;;;;;5021223;28;20523;-76
2021/10/21 02:06:26;;;;;;;5.65;4.45;;;13.50;99.90;;;;;;5022600;28;20061;-74
2021/10/21 02:08:51;;;;;;;6.47;5.03;;;13.40;99.90;;;;;;5027968;28;20111;-74
2021/10/21 02:11:17;;;;;;;5.53;4.80;;;13.40;99.90;;;;;;5025960;28;20022;-75
2021/10/21 02:13:43;;;;;;;5.45;4.72;;;13.40;99.90;;;;;;5029696;28;20105;-74
2021/10/21 02:16:08;;;;;;;8.52;5.65;;;13.40;99.90;;;;;;5026213;28;20090;-74
2021/10/21 02:18:34;;;;;;;8.68;5.20;;;13.30;99.90;;;;;;5020641;28;20421;-74
2021/10/21 02:21:00;;;;;;;6.95;5.60;;;13.30;99.90;;;;;;5032776;28;20112;-76
2021/10/21 02:23:25;;;;;;;6.70;6.00;;;13.20;99.90;;;;;;5034273;28;20021;-75
2021/10/21 02:25:51;;;;;;;8.65;6.40;;;13.20;99.90;;;;;;5033022;28;20037;-73
2021/10/21 02:28:16;;;;;;;10.05;6.20;;;13.10;99.90;;;;;;5032684;28;20017;-74
2021/10/21 02:30:42;;;;;;;9.18;6.63;;;13.10;99.90;;;;;;5033823;28;20480;-74
2021/10/21 02:33:08;;;;;;;8.38;6.80;;;13.00;99.90;;;;;;5019448;28;20026;-75
2021/10/21 02:35:34;;;;;;;8.60;7.10;;;13.00;99.90;;;;;;5022544;28;20105;-75
2021/10/21 02:38:00;;;;;;;9.63;6.70;;;12.90;99.90;;;;;;5030870;28;20053;-75
2021/10/21 02:40:26;;;;;;;11.35;7.25;;;12.90;99.90;;;;;;5022499;28;20433;-75
2021/10/21 02:42:51;;;;;;;9.70;6.78;;;12.90;99.90;;;;;;5017490;28;20040;-75
2021/10/21 02:45:17;;;;;;;11.38;7.28;;;12.90;99.90;;;;;;5039443;28;20384;-75
2021/10/21 02:47:44;;;;;;;7.72;6.03;;;12.80;99.90;;;;;;5033582;28;20468;-74
2021/10/21 02:50:10;;;;;;;9.75;5.75;;;12.80;99.90;;;;;;5033706;28;20021;-75
2021/10/21 02:52:36;;;;;;;7.38;4.70;;;12.80;99.90;;;;;;5029565;28;20380;-75
2021/10/21 02:55:02;;;;;;;6.20;4.70;;;12.80;99.90;;;;;;5022311;28;20030;-75
2021/10/21 02:57:28;;;;;;;5.78;4.32;;;12.80;99.90;;;;;;5026913;28;20036;-75
2021/10/21 02:59:53;;;;;;;4.82;4.32;;;12.70;99.90;;;;;;5012270;28;20030;-75
2021/10/21 03:02:19;;;;;;;5.68;4.20;;;12.80;99.90;;;;;;5031077;28;20030;-74
2021/10/21 03:04:44;;;;;;;5.43;4.55;;;12.70;99.90;;;;;;5022517;28;20432;-74
2021/10/21 03:07:10;;;;;;;7.38;5.63;;;12.70;99.90;;;;;;5018031;28;20048;-75
2021/10/21 03:09:36;;;;;;;7.22;5.78;;;12.60;99.90;;;;;;5034505;28;20071;-74
2021/10/21 03:12:01;;;;;;;6.18;5.38;;;12.60;99.90;;;;;;5021170;28;20037;-75
2021/10/21 03:14:27;;;;;;;6.65;4.85;;;12.60;99.90;;;;;;5033378;28;20499;-75
2021/10/21 03:16:52;;;;;;;8.93;4.80;;;12.50;99.90;;;;;;5019538;28;20072;-75
2021/10/21 03:19:18;;;;;;;4.90;3.78;;;12.60;99.90;;;;;;5021852;28;20030;-75
2021/10/21 03:21:43;;;;;;;5.35;4.22;;;12.60;99.90;;;;;;5027663;28;20026;-74
2021/10/21 03:24:09;;;;;;;5.05;3.92;;;12.50;99.90;;;;;;5024428;28;20572;-75
2021/10/21 03:26:35;;;;;;;4.30;3.70;;;12.50;99.90;;;;;;5015897;28;20105;-73
2021/10/21 03:29:00;;;;;;;4.85;3.30;;;12.60;99.90;;;;;;5026503;28;20029;-73
2021/10/21 03:31:29;;;;;;;3.53;3.08;;;12.60;99.90;;;;;;5021741;28;20148;-73
2021/10/21 03:33:55;;;;;;;3.70;3.35;;;12.60;99.90;;;;;;5032988;28;20029;-75
2021/10/21 03:36:21;;;;;;;3.55;2.60;;;12.60;99.90;;;;;;5014948;28;20396;-74
2021/10/21 03:38:46;;;;;;;3.53;2.78;;;12.60;99.90;;;;;;5012765;28;20034;-74
2021/10/21 03:41:12;;;;;;;4.05;2.78;;;12.60;99.90;;;;;;5030909;28;20037;-74
2021/10/21 03:43:37;;;;;;;3.10;2.80;;;12.60;99.90;;;;;;5026040;28;20029;-74
2021/10/21 03:46:03;;;;;;;2.85;2.60;;;12.60;99.90;;;;;;5032092;28;20095;-74
2021/10/21 03:48:28;;;;;;;3.15;2.70;;;12.50;99.90;;;;;;5032393;28;20028;-74
2021/10/21 03:50:54;;;;;;;3.22;2.80;;;12.60;99.90;;;;;;5019076;28;20033;-74
2021/10/21 03:53:19;;;;;;;3.85;3.13;;;12.70;99.90;;;;;;5021671;28;20022;-74
2021/10/21 03:55:45;;;;;;;4.70;3.40;;;12.90;99.90;;;;;;5016349;28;20380;-73
2021/10/21 03:58:10;;;;;;;4.53;3.17;;;12.90;99.90;;;;;;5032316;28;20503;-73
2021/10/21 04:00:36;;;;;;;3.28;2.97;;;12.90;99.90;;;;;;5030911;28;20087;-74
2021/10/21 04:03:02;;;;;;;4.57;3.33;;;12.90;99.90;;;;;;5032443;28;20033;-74
2021/10/21 04:05:28;;;;;;;3.67;3.28;;;12.90;99.90;;;;;;5029048;28;20026;-74
2021/10/21 04:07:53;;;;;;;4.13;3.63;;;12.90;99.90;;;;;;5021096;28;20028;-74
2021/10/21 04:10:19;;;;;;;4.03;3.65;;;12.90;99.90;;;;;;5015739;28;20033;-74
2021/10/21 04:12:45;;;;;;;4.40;3.63;;;13.00;99.90;;;;;;5012253;28;20034;-73
2021/10/21 04:15:11;;;;;;;4.15;3.63;;;13.10;99.90;;;;;;5015428;28;20063;-73
2021/10/21 04:17:37;;;;;;;5.78;3.78;;;13.10;99.90;;;;;;5032745;28;20626;-74
2021/10/21 04:20:04;;;;;;;5.50;3.80;;;13.10;99.90;;;;;;5014678;28;20635;-73
2021/10/21 04:22:30;;;;;;;4.18;3.78;;;13.20;99.90;;;;;;5012103;28;20080;-73
2021/10/21 04:24:55;;;;;;;4.47;3.75;;;13.20;99.90;;;;;;5015029;28;20022;-73
2021/10/21 04:27:21;;;;;;;6.13;4.15;;;13.30;99.90;;;;;;5031993;28;20024;-74
2021/10/21 04:29:46;;;;;;;6.20;4.15;;;13.30;99.90;;;;;;5028385;28;20029;-74
2021/10/21 04:32:12;;;;;;;4.95;4.40;;;13.30;99.90;;;;;;5021040;28;20104;-75
2021/10/21 04:34:37;;;;;;;4.70;4.10;;;13.30;99.90;;;;;;5029573;28;20036;-74
2021/10/21 04:37:03;;;;;;;5.03;4.18;;;13.40;99.90;;;;;;5012403;28;20120;-75
2021/10/21 04:39:29;;;;;;;7.28;4.70;;;13.40;99.90;;;;;;5025537;28;20068;-75
2021/10/21 04:41:54;;;;;;;5.85;4.50;;;13.50;99.90;;;;;;5015863;28;20029;-75
2021/10/21 04:44:20;;;;;;;6.45;4.43;;;13.40;99.90;;;;;;5025987;28;20033;-74
2021/10/21 04:46:46;;;;;;;6.60;4.28;;;13.50;99.90;;;;;;5031761;28;20068;-72
2021/10/21 04:49:11;;;;;;;10.05;5.60;;;13.60;99.90;;;;;;5027969;28;20053;-73
2021/10/21 04:51:37;;;;;;;6.10;4.18;;;13.60;99.90;;;;;;5011878;28;20030;-74
2021/10/21 04:54:02;;;;;;;5.03;4.10;;;13.60;99.90;;;;;;5025186;28;20030;-73
2021/10/21 04:56:28;;;;;;;4.47;3.97;;;13.60;99.90;;;;;;5022732;28;20042;-75
2021/10/21 04:58:54;;;;;;;7.97;4.55;;;13.60;99.90;;;;;;5027821;28;20037;-75
2021/10/21 05:01:19;;;;;;;5.78;4.22;;;13.60;99.90;;;;;;5022255;28;20263;-75
2021/10/21 05:03:45;;;;;;;5.90;4.32;;;13.60;99.90;;;;;;5014873;28;20038;-74
2021/10/21 05:06:10;;;;;;;4.40;3.75;;;13.60;99.90;;;;;;5022097;28;20029;-74
2021/10/21 05:08:36;;;;;;;5.10;3.80;;;13.60;99.90;;;;;;5028382;28;20030;-74
2021/10/21 05:11:01;;;;;;;6.35;3.80;;;13.70;99.90;;;;;;5021401;28;20025;-75
2021/10/21 05:13:27;;;;;;;6.07;4.10;;;13.70;99.90;;;;;;5028751;28;20120;-75
2021/10/21 05:15:52;;;;;;;4.88;3.58;;;13.70;99.90;;;;;;5021262;28;20021;-74
2021/10/21 05:18:18;;;;;;;3.38;2.80;;;13.60;99.90;;;;;;5018139;28;20041;-75
2021/10/21 05:20:43;;;;;;;5.25;1.95;;;13.70;99.90;;;;;;5022346;28;20026;-75
2021/10/21 05:23:09;;;;;;;4.00;2.00;;;14.00;99.90;;;;;;5027426;28;20027;-75
2021/10/21 05:25:35;;;;;;;3.45;1.58;;;14.20;99.90;;;;;;5022762;28;20022;-75
2021/10/21 05:28:01;;;;;;;10.05;5.60;;;14.30;99.90;;;;;;5025175;28;20033;-76
2021/10/21 05:30:27;;;;;;;3.58;1.50;;;14.10;99.90;;;;;;5020363;28;20388;-74
2021/10/21 05:32:52;;;;;;;3.05;1.25;;;14.30;99.90;;;;;;5018223;28;20030;-75
2021/10/21 05:35:18;;;;;;;2.25;1.15;;;14.00;99.90;;;;;;5023327;28;20028;-75
2021/10/21 05:37:43;;;;;;;6.82;3.10;;;13.80;99.90;;;;;;5023597;28;20187;-73
2021/10/21 05:40:09;;;;;;;4.00;1.20;;;13.70;99.90;;;;;;5019638;28;20045;-75
2021/10/21 05:42:35;;;;;;;4.63;1.42;;;13.80;99.90;;;;;;5033474;28;20515;-75
2021/10/21 05:45:00;;;;;;;6.03;1.02;;;13.80;99.90;;;;;;5030595;28;20087;-75
2021/10/21 05:47:26;;;;;;;2.28;1.05;;;13.70;99.90;;;;;;5033715;28;20025;-74
2021/10/21 05:49:52;;;;;;;5.50;1.20;;;13.70;99.90;;;;;;5025377;28;20101;-75
2021/10/21 05:52:20;;;;;;;4.43;1.73;;;13.60;99.90;;;;;;5031015;28;20140;-74
2021/10/21 05:54:46;;;;;;;3.47;1.08;;;13.40;99.90;;;;;;5033427;28;20025;-74
2021/10/21 05:57:12;;;;;;;4.03;1.42;;;13.50;99.90;;;;;;5021288;28;20037;-74
2021/10/21 05:59:38;;;;;;;3.22;1.13;;;13.40;99.90;;;;;;5023755;28;20037;-75
2021/10/21 06:02:03;;;;;;;5.70;1.33;;;13.20;99.90;;;;;;5018380;28;20032;-75
2021/10/21 06:04:29;;;;;;;5.10;2.85;;;13.20;99.90;;;;;;5035916;28;20554;-77
2021/10/21 06:06:54;;;;;;;5.05;1.25;;;13.10;99.90;;;;;;5021589;28;20064;-75
2021/10/21 06:09:23;;;;;;;4.25;1.10;;;13.20;99.90;;;;;;5025327;28;20044;-74
2021/10/21 06:11:50;;;;;;;4.82;1.25;;;13.20;99.90;;;;;;5043107;28;20056;-74
2021/10/21 06:14:16;;;;;;;7.05;1.23;;;13.10;99.90;;;;;;5022809;28;20017;-74
2021/10/21 06:16:43;;;;;;;7.82;1.40;;;13.00;99.90;;;;;;5031755;28;20171;-74
2021/10/21 06:19:09;;;;;;;4.28;1.10;;;13.10;99.90;;;;;;5014302;28;20033;-74
2021/10/21 06:21:34;;;;;;;5.88;1.40;;;13.10;99.90;;;;;;5028981;28;20083;-75
2021/10/21 06:24:00;;;;;;;5.80;1.33;;;13.10;99.90;;;;;;5024988;28;20032;-74
2021/10/21 06:26:27;;;;;;;7.65;1.42;;;13.00;99.90;;;;;;5027407;28;20104;-74
2021/10/21 06:28:52;;;;;;;5.93;1.52;;;12.80;99.90;;;;;;5014297;28;20017;-75
2021/10/21 06:31:21;;;;;;;4.60;1.75;;;12.80;99.90;;;;;;5028805;28;20076;-73
2021/10/21 06:33:48;;;;;;;7.38;1.60;;;12.90;99.90;;;;;;5024292;28;20030;-74
2021/10/21 06:36:13;;;;;;;6.70;1.40;;;12.90;99.90;;;;;;5016123;28;20026;-74
2021/10/21 06:38:39;;;;;;;9.60;1.55;;;12.70;99.90;;;;;;5033747;28;20083;-74
2021/10/21 06:41:06;;;;;;;6.57;1.73;;;12.80;99.90;;;;;;5028877;28;20436;-74
2021/10/21 06:43:32;;;;;;;7.45;1.98;;;12.80;99.90;;;;;;5033285;28;20387;-75
2021/10/21 06:46:00;;;;;;;6.32;1.75;;;12.80;99.90;;;;;;5032429;28;20028;-74
2021/10/21 06:48:26;;;;;;;8.13;2.00;;;12.80;99.90;;;;;;5022824;28;20034;-74
2021/10/21 06:50:51;;;;;;;8.10;1.98;;;12.70;99.90;;;;;;5026402;28;20040;-74
2021/10/21 06:53:18;;;;;;;7.00;2.00;;;12.70;99.90;;;;;;5032574;28;20398;-74
2021/10/21 06:55:43;;;;;;;7.93;2.00;;;12.80;99.90;;;;;;5031951;28;20056;-74
2021/10/21 06:58:09;;;;;;;10.93;2.13;;;12.80;99.90;;;;;;5033493;28;20108;-74
2021/10/21 07:00:40;;;;;;;10.48;1.85;;;12.80;99.90;;;;;;5033168;28;20095;-74
2021/10/21 07:03:06;;;;;;;11.73;1.67;;;12.90;99.90;;;;;;5033456;28;20021;-75
2021/10/21 07:05:39;;;;;;;8.85;1.65;;;12.90;99.90;;;;;;5031986;28;20028;-75
2021/10/21 07:08:06;;;;;;;8.57;1.83;;;12.90;99.90;;;;;;5033188;28;20514;-74
2021/10/21 07:10:32;;;;;;;10.32;2.00;;;13.00;99.90;;;;;;5033163;28;20083;-76
2021/10/21 07:12:58;;;;;;;11.15;2.05;;;12.90;99.90;;;;;;5033261;28;20026;-75
2021/10/21 07:15:24;;;;;;;6.88;2.10;;;12.90;99.90;;;;;;5018779;28;20032;-75
2021/10/21 07:17:49;;;;;;;7.15;1.80;;;12.90;99.90;;;;;;5033152;28;20033;-75
2021/10/21 07:20:15;;;;;;;15.23;1.73;;;13.00;99.90;;;;;;5031842;28;20033;-75
2021/10/21 07:22:41;;;;;;;7.35;1.75;;;13.00;99.90;;;;;;5031730;28;20387;-75
2021/10/21 07:25:07;;;;;;;9.52;1.60;;;12.90;99.90;;;;;;5020021;28;20025;-75
2021/10/21 07:27:33;;;;;;;7.93;1.70;;;13.10;99.90;;;;;;5021352;28;20021;-75
2021/10/21 07:29:58;;;;;;;13.35;2.28;;;12.90;99.90;;;;;;5027211;28;20151;-74
2021/10/21 07:32:24;;;;;;;8.20;1.83;;;13.10;99.90;;;;;;5024575;28;20033;-75
2021/10/21 07:34:50;;;;;;;8.65;1.80;;;13.00;99.90;;;;;;5032831;28;20784;-75
2021/10/21 07:37:16;;;;;;;6.57;1.23;;;13.10;99.90;;;;;;5022444;28;20133;-75
2021/10/21 07:39:42;;;;;;;7.05;1.50;;;13.20;99.90;;;;;;5032048;28;20037;-75
2021/10/21 07:42:12;;;;;;;12.30;1.70;;;13.10;99.90;;;;;;5024257;28;20022;-75
2021/10/21 07:44:42;;;;;;;5.28;1.33;;;13.10;99.90;;;;;;5029985;28;20034;-75
2021/10/21 07:47:07;;;;;;;14.88;1.77;;;13.20;99.90;;;;;;5031687;28;20048;-75
2021/10/21 07:49:33;;;;;;;7.80;1.73;;;13.10;99.90;;;;;;5024501;28;20029;-75
2021/10/21 07:52:02;;;;;;;10.40;2.17;;;13.00;99.90;;;;;;5024392;28;20034;-75
2021/10/21 07:54:30;;;;;;;8.60;1.40;;;13.10;99.90;;;;;;5017864;28;20033;-75
2021/10/21 07:56:57;;;;;;;7.85;1.60;;;13.10;99.90;;;;;;5031529;28;20403;-75
2021/10/21 07:59:24;;;;;;;6.70;1.83;;;13.00;99.90;;;;;;5031219;28;20028;-76
2021/10/21 08:01:50;;;;;;;7.95;1.70;;;13.00;99.90;;;;;;5017050;28;20029;-75
2021/10/21 08:04:16;;;;;;;8.07;1.48;;;13.00;99.90;;;;;;5012673;28;20029;-75
2021/10/21 08:06:44;;;;;;;11.85;1.80;;;13.00;99.90;;;;;;5025791;28;20507;-75
2021/10/21 08:09:09;;;;;;;6.97;1.52;;;13.00;99.90;;;;;;5023573;28;20100;-75
2021/10/21 08:11:35;;;;;;;4.18;1.10;;;13.00;99.90;;;;;;5025719;28;20492;-75
2021/10/21 08:14:01;;;;;;;9.13;1.83;;;13.00;99.90;;;;;;5022085;28;20025;-75
2021/10/21 08:16:26;;;;;;;9.15;1.50;;;12.90;99.90;;;;;;5032261;28;20100;-75
2021/10/21 08:18:52;;;;;;;10.40;1.88;;;12.80;99.90;;;;;;5031947;28;20045;-75
2021/10/21 08:21:18;;;;;;;4.10;0.93;;;12.80;99.90;;;;;;5026785;28;20041;-74
2021/10/21 08:23:47;;;;;;;9.60;1.40;;;12.80;99.90;;;;;;5032119;28;20021;-75
2021/10/21 08:26:13;;;;;;;8.52;1.40;;;12.70;99.90;;;;;;5030808;28;20040;-75
2021/10/21 08:28:38;;;;;;;5.30;0.90;;;12.70;99.90;;;;;;5023874;28;20032;-75
2021/10/21 08:31:04;;;;;;;8.65;1.08;;;12.60;99.90;;;;;;5025270;28;20053;-75
2021/10/21 08:33:29;;;;;;;12.65;1.50;;;12.50;99.90;;;;;;5018905;28;20036;-75
2021/10/21 08:35:55;;;;;;;7.78;1.00;;;12.40;99.90;;;;;;5031912;28;20353;-75
2021/10/21 08:38:20;;;;;;;5.60;1.08;;;12.40;99.90;;;;;;5022652;28;20026;-75
2021/10/21 08:40:46;;;;;;;7.47;1.15;;;12.30;99.90;;;;;;5026546;28;20469;-75
2021/10/21 08:43:12;;;;;;;8.05;1.55;;;12.20;99.90;;;;;;5024603;28;20392;-75
2021/10/21 08:45:37;;;;;;;1.30;0.70;;;12.20;99.90;;;;;;5030508;28;20018;-74
2021/10/21 08:48:05;;;;;;;9.13;1.30;;;12.20;99.90;;;;;;5031642;28;20040;-75
2021/10/21 08:50:34;;;;;;;5.55;0.77;;;12.20;99.90;;;;;;5017584;28;20045;-75
2021/10/21 08:53:02;;;;;;;2.85;0.70;;;12.20;99.90;;;;;;5028160;28;20030;-74
2021/10/21 08:55:28;;;;;;;5.70;1.33;;;12.30;99.90;;;;;;5036182;28;20037;-74
2021/10/21 08:57:53;;;;;;;4.28;1.13;;;12.40;99.90;;;;;;5028777;28;20018;-75
2021/10/21 09:00:19;;;;;;;6.47;0.80;;;12.30;99.90;;;;;;5025834;28;20034;-75
2021/10/21 09:02:51;;;;;;;7.47;0.80;;;12.30;99.90;;;;;;5023318;28;20018;-78
2021/10/21 09:05:31;;;;;;;1.35;0.57;;;12.30;99.90;;;;;;5014703;28;20018;-75
2021/10/21 09:08:14;;;;;;;2.65;0.70;;;12.40;99.90;;;;;;5031536;28;20101;-75
2021/10/21 09:10:45;;;;;;;2.67;0.70;;;12.40;99.90;;;;;;5017349;28;20373;-75
2021/10/21 09:13:34;;;;;;;6.20;0.60;;;12.40;99.90;;;;;;5029263;28;20079;-75
2021/10/21 09:16:03;;;;;;;3.53;0.60;;;12.40;99.90;;;;;;5019302;28;20488;-75
2021/10/21 09:18:43;;;;;;;1.63;0.70;;;12.50;99.90;;;;;;5035265;28;20057;-74
2021/10/21 09:21:28;;;;;;;3.78;0.70;;;12.50;99.90;;;;;;5021013;28;20139;-74
2021/10/21 09:23:54;;;;;;;2.40;0.80;;;12.60;99.90;;;;;;5032926;28;20022;-74
2021/10/21 09:26:20;;;;;;;1.38;0.50;;;12.80;99.90;;;;;;5033016;28;20036;-75
2021/10/21 09:28:45;;;;;;;3.67;0.68;;;12.80;99.90;;;;;;5024312;28;20513;-74
2021/10/21 09:31:12;;;;;;;3.22;0.70;;;12.70;99.90;;;;;;5034888;28;20523;-74
2021/10/21 09:33:46;;;;;;;0.95;0.40;;;12.70;99.90;;;;;;5026159;28;20022;-74
2021/10/21 09:36:12;;;;;;;2.17;0.60;;;12.70;99.90;;;;;;5028452;28;20033;-74
2021/10/21 09:38:50;;;;;;;1.40;0.50;;;12.40;99.90;;;;;;5023791;28;20092;-74
2021/10/21 09:41:17;;;;;;;1.08;0.30;;;12.40;99.90;;;;;;5021624;28;20365;-75
2021/10/21 09:43:43;;;;;;;1.70;0.50;;;12.30;99.90;;;;;;5039395;28;20017;-75
2021/10/21 09:46:28;;;;;;;4.35;0.50;;;12.20;99.90;;;;;;5035984;28;20023;-75
2021/10/21 09:49:16;;;;;;;2.58;0.63;;;12.20;99.90;;;;;;5034671;28;20022;-75
2021/10/21 09:51:43;;;;;;;0.80;0.40;;;12.20;99.90;;;;;;5034614;28;20048;-74
2021/10/21 09:54:09;;;;;;;1.10;0.40;;;12.20;99.90;;;;;;5021043;28;20092;-74
2021/10/21 09:57:06;;;;;;;2.72;0.60;;;12.20;99.90;;;;;;5033195;28;20420;-74
2021/10/21 09:59:36;;;;;;;2.45;0.60;;;12.20;99.90;;;;;;5034152;28;20079;-74
2021/10/21 10:02:07;;;;;;;0.93;0.47;;;12.10;99.90;;;;;;5032495;28;20044;-74
2021/10/21 10:04:34;;;;;;;0.80;0.40;;;12.10;99.90;;;;;;5034333;28;20425;-74
2021/10/21 10:07:00;;;;;;;2.80;0.65;;;12.10;99.90;;;;;;5036365;28;20048;-74
2021/10/21 10:09:34;;;;;;;2.83;0.50;;;11.90;99.90;;;;;;5037690;28;20116;-75
2021/10/21 10:12:03;;;;;;;2.30;0.57;;;11.80;99.90;;;;;;5033816;28;20112;-74
2021/10/21 10:14:30;;;;;;;1.25;0.50;;;11.80;99.90;;;;;;5049959;28;20021;-75
2021/10/21 10:16:58;;;;;;;1.00;0.50;;;11.90;99.90;;;;;;5034270;28;20021;-74
2021/10/21 10:19:24;;;;;;;3.25;0.50;;;11.90;99.90;;;;;;5021570;28;20026;-76
2021/10/21 10:21:56;;;;;;;2.15;0.50;;;11.70;99.90;;;;;;5026186;28;20033;-76
2021/10/21 10:24:32;;;;;;;2.95;0.50;;;11.60;99.90;;;;;;5014500;28;20018;-76
2021/10/21 10:26:59;;;;;;;1.88;0.60;;;11.60;99.90;;;;;;5034207;28;20048;-76
2021/10/21 10:29:30;;;;;;;0.40;0.35;;;11.70;99.90;;;;;;5020573;28;20036;-75
2021/10/21 10:31:59;;;;;;;1.98;0.60;;;11.60;99.90;;;;;;5025838;28;20564;-76
2021/10/21 10:34:37;;;;;;;1.67;0.50;;;11.60;99.90;;;;;;5014911;28;20026;-76
2021/10/21 10:37:15;;;;;;;1.48;0.60;;;11.70;99.90;;;;;;5032763;28;20036;-77
2021/10/21 10:39:50;;;;;;;1.27;0.50;;;11.70;99.90;;;;;;5020542;28;20046;-75
2021/10/21 10:42:38;;;;;;;0.57;0.50;;;11.70;99.90;;;;;;5025722;28;20017;-76
2021/10/21 10:45:07;;;;;;;1.40;0.50;;;11.70;99.90;;;;;;5022922;28;20179;-76
2021/10/21 10:47:44;;;;;;;2.35;0.75;;;11.70;99.90;;;;;;5029537;28;20022;-76
2021/10/21 10:50:21;;;;;;;1.30;0.50;;;11.60;99.90;;;;;;5021783;28;20396;-76
2021/10/21 10:52:52;;;;;;;1.40;0.65;;;11.60;99.90;;;;;;5035988;28;20475;-76
2021/10/21 10:55:20;;;;;;;1.98;0.50;;;11.80;99.90;;;;;;5032806;28;20033;-76
2021/10/21 10:57:47;;;;;;;1.38;0.95;;;11.80;99.90;;;;;;5021363;28;20495;-77
2021/10/21 11:00:32;;;;;;;2.22;0.70;;;11.80;99.90;;;;;;5020228;28;20380;-76
2021/10/21 11:02:58;;;;;;;2.00;0.77;;;11.80;99.90;;;;;;5023438;28;20022;-76
2021/10/21 11:05:47;;;;;;;3.47;0.95;;;11.90;99.90;;;;;;5025494;28;20507;-76
2021/10/21 11:08:15;;;;;;;2.38;0.70;;;11.90;99.90;;;;;;5025297;28;20060;-76
2021/10/21 11:10:58;;;;;;;2.35;0.70;;;11.90;99.90;;;;;;5018811;28;20120;-76
2021/10/21 11:13:24;;;;;;;2.45;0.60;;;11.90;99.90;;;;;;5030991;28;20076;-76
2021/10/21 11:15:51;;;;;;;1.58;0.70;;;11.90;99.90;;;;;;5026708;28;20029;-76
2021/10/21 11:18:44;;;;;;;3.78;0.95;;;11.80;99.90;;;;;;5042241;28;20025;-76
2021/10/21 11:21:48;;;;;;;2.67;0.90;;;11.90;99.90;;;;;;5040310;28;20682;-75
2021/10/21 11:24:48;;;;;;;3.05;1.20;;;12.00;99.90;;;;;;5035651;28;20422;-76
2021/10/21 11:27:19;;;;;;;3.47;0.73;;;12.10;99.90;;;;;;5031121;28;20388;-76
2021/10/21 11:29:47;;;;;;;4.60;0.88;;;12.10;99.90;;;;;;5044509;28;20018;-76
2021/10/21 11:32:15;;;;;;;4.63;1.23;;;12.10;99.90;;;;;;5045094;28;20029;-76
2021/10/21 11:34:41;;;;;;;5.43;1.10;;;12.20;99.90;;;;;;5040212;28;20026;-76
2021/10/21 11:37:06;;;;;;;3.42;0.90;;;12.10;99.90;;;;;;5037511;28;20075;-76
2021/10/21 11:39:37;;;;;;;4.95;1.02;;;12.00;99.90;;;;;;5031872;28;20037;-76
2021/10/21 11:42:04;;;;;;;1.42;0.95;;;12.00;99.90;;;;;;5044792;28;20025;-75
2021/10/21 11:44:30;;;;;;;2.08;0.80;;;12.00;99.90;;;;;;5034927;28;20136;-76
2021/10/21 11:47:00;;;;;;;2.88;0.80;;;12.00;99.90;;;;;;5037639;28;20480;-76
2021/10/21 11:49:27;;;;;;;1.40;0.80;;;12.00;99.90;;;;;;5034953;28;20032;-75
2021/10/21 11:52:04;;;;;;;2.00;0.88;;;12.10;99.90;;;;;;5044031;28;20032;-75
2021/10/21 11:54:30;;;;;;;5.13;1.20;;;12.10;99.90;;;;;;5043183;28;20243;-76
2021/10/21 11:56:56;;;;;;;3.92;0.90;;;12.10;99.90;;;;;;5036575;28;20150;-74
2021/10/21 11:59:47;;;;;;;2.65;0.90;;;12.10;99.90;;;;;;5034797;28;20029;-74
2021/10/21 12:02:21;;;;;;;2.17;0.90;;;12.10;99.90;;;;;;5028211;28;20160;-74
2021/10/21 12:04:47;;;;;;;1.92;0.88;;;12.10;99.90;;;;;;5031934;28;20021;-74
2021/10/21 12:07:13;;;;;;;4.47;1.10;;;12.20;99.90;;;;;;5039963;28;20021;-72
2021/10/21 12:09:41;;;;;;;1.88;0.80;;;12.10;99.90;;;;;;5042606;28;20025;-75
2021/10/21 12:12:12;;;;;;;3.60;1.17;;;12.20;99.90;;;;;;5038467;28;20026;-74
2021/10/21 12:14:41;;;;;;;2.65;0.90;;;12.20;99.90;;;;;;5030762;28;20017;-74
2021/10/21 12:17:08;;;;;;;1.95;0.85;;;12.10;99.90;;;;;;5037328;28;20102;-74
2021/10/21 12:19:34;;;;;;;2.13;1.00;;;12.10;99.90;;;;;;5036538;28;20108;-74
2021/10/21 12:22:04;;;;;;;4.38;1.02;;;12.10;99.90;;;;;;5023435;28;20030;-76
2021/10/21 12:24:31;;;;;;;8.45;1.15;;;12.20;99.90;;;;;;5022594;28;20394;-76
2021/10/21 12:26:58;;;;;;;2.53;0.90;;;12.00;99.90;;;;;;5019443;28;20610;-76
2021/10/21 12:29:42;;;;;;;3.13;1.00;;;12.00;99.90;;;;;;5031625;28;20021;-75
2021/10/21 12:32:21;;;;;;;3.78;0.90;;;12.10;99.90;;;;;;5022076;28;20021;-76
2021/10/21 12:34:48;;;;;;;3.90;1.02;;;12.00;99.90;;;;;;5017621;28;20033;-76
2021/10/21 12:37:15;;;;;;;2.58;1.00;;;12.00;99.90;;;;;;5020305;28;20041;-76
2021/10/21 12:39:40;;;;;;;3.03;1.02;;;12.10;99.90;;;;;;5024149;28;20037;-76
2021/10/21 12:42:08;;;;;;;6.07;1.30;;;12.00;99.90;;;;;;5023742;28;20030;-76
2021/10/21 12:44:44;;;;;;;4.95;1.20;;;12.00;99.90;;;;;;5024641;28;20021;-75
2021/10/21 12:47:27;;;;;;;3.67;0.75;;;12.00;99.90;;;;;;5030586;28;20160;-74